sensor_id;sensor_type;location;lat;lon;timestamp;temperature;humidity
39975;DHT22;25652;52.852;6.602;2024-01-15T00:01:43;4.50;83.60
39975;DHT22;25652;52.852;6.602;2024-01-15T00:04:08;4.40;83.70
39975;DHT22;25652;52.852;6.602;2024-01-15T00:06:34;4.30;83.90
39975;DHT22;25652;52.852;6.602;2024-01-15T00:08:59;4.30;84.00
39975;DHT22;25652;52.852;6.602;2024-01-15T00:11:25;4.20;84.10
39975;DHT22;25652;52.852;6.602;2024-01-15T00:13:50;4.20;84.20
39975;DHT22;25652;52.852;6.602;2024-01-15T00:16:16;4.10;84.20
39975;DHT22;25652;52.852;6.602;2024-01-15T00:18:41;4.10;84.30
39975;DHT22;25652;52.852;6.602;2024-01-15T00:21:07;4.00;84.50
39975;DHT22;25652;52.852;6.602;2024-01-15T00:23:32;4.00;84.40
39975;DHT22;25652;52.852;6.602;2024-01-15T00:25:58;3.90;84.50
39975;DHT22;25652;52.852;6.602;2024-01-15T00:28:23;3.90;84.60
39975;DHT22;25652;52.852;6.602;2024-01-15T00:30:49;4.20;86.00
39975;DHT22;25652;52.852;6.602;2024-01-15T00:33:14;5.00;84.90
39975;DHT22;25652;52.852;6.602;2024-01-15T00:35:40;5.20;82.40
39975;DHT22;25652;52.852;6.602;2024-01-15T00:38:06;5.20;81.50
39975;DHT22;25652;52.852;6.602;2024-01-15T00:40:31;5.10;81.50
39975;DHT22;25652;52.852;6.602;2024-01-15T00:42:56;4.90;82.00
39975;DHT22;25652;52.852;6.602;2024-01-15T00:45:22;4.70;82.50
39975;DHT22;25652;52.852;6.602;2024-01-15T00:47:48;4.60;82.80
39975;DHT22;25652;52.852;6.602;2024-01-15T00:50:13;4.50;83.00
39975;DHT22;25652;52.852;6.602;2024-01-15T00:52:40;4.40;83.20
39975;DHT22;25652;52.852;6.602;2024-01-15T00:55:06;4.30;83.30
39975;DHT22;25652;52.852;6.602;2024-01-15T00:57:31;4.80;84.60
39975;DHT22;25652;52.852;6.602;2024-01-15T00:59:57;5.70;83.70
39975;DHT22;25652;52.852;6.602;2024-01-15T01:02:22;6.60;80.70
39975;DHT22;25652;52.852;6.602;2024-01-15T01:04:48;7.40;78.40
39975;DHT22;25652;52.852;6.602;2024-01-15T01:07:13;7.70;76.20
39975;DHT22;25652;52.852;6.602;2024-01-15T01:09:39;7.50;74.90
39975;DHT22;25652;52.852;6.602;2024-01-15T01:12:04;7.20;75.60
39975;DHT22;25652;52.852;6.602;2024-01-15T01:14:31;6.90;76.10
39975;DHT22;25652;52.852;6.602;2024-01-15T01:16:57;6.70;77.00
39975;DHT22;25652;52.852;6.602;2024-01-15T01:19:22;6.40;77.60
39975;DHT22;25652;52.852;6.602;2024-01-15T01:21:48;6.20;78.30
39975;DHT22;25652;52.852;6.602;2024-01-15T01:24:13;6.00;78.90
39975;DHT22;25652;52.852;6.602;2024-01-15T01:26:39;5.80;79.30
39975;DHT22;25652;52.852;6.602;2024-01-15T01:29:04;5.70;80.00
39975;DHT22;25652;52.852;6.602;2024-01-15T01:31:30;5.50;81.30
39975;DHT22;25652;52.852;6.602;2024-01-15T01:33:55;5.40;81.00
39975;DHT22;25652;52.852;6.602;2024-01-15T01:36:21;5.30;81.30
39975;DHT22;25652;52.852;6.602;2024-01-15T01:38:46;5.20;81.60
39975;DHT22;25652;52.852;6.602;2024-01-15T01:41:12;5.10;81.70
39975;DHT22;25652;52.852;6.602;2024-01-15T01:43:37;5.10;82.00
39975;DHT22;25652;52.852;6.602;2024-01-15T01:46:03;5.00;81.90
39975;DHT22;25652;52.852;6.602;2024-01-15T01:48:30;5.00;82.10
39975;DHT22;25652;52.852;6.602;2024-01-15T01:50:57;4.90;82.30
39975;DHT22;25652;52.852;6.602;2024-01-15T01:53:24;4.80;83.20
39975;DHT22;25652;52.852;6.602;2024-01-15T01:55:50;4.80;82.60
39975;DHT22;25652;52.852;6.602;2024-01-15T01:58:16;4.70;82.80
39975;DHT22;25652;52.852;6.602;2024-01-15T02:00:41;4.70;82.80
39975;DHT22;25652;52.852;6.602;2024-01-15T02:03:08;4.70;82.90
39975;DHT22;25652;52.852;6.602;2024-01-15T02:05:34;4.60;82.90
39975;DHT22;25652;52.852;6.602;2024-01-15T02:08:00;4.50;83.10
39975;DHT22;25652;52.852;6.602;2024-01-15T02:10:25;4.50;83.20
39975;DHT22;25652;52.852;6.602;2024-01-15T02:12:51;4.40;83.20
39975;DHT22;25652;52.852;6.602;2024-01-15T02:15:16;4.40;83.50
39975;DHT22;25652;52.852;6.602;2024-01-15T02:18:02;4.40;83.50
39975;DHT22;25652;52.852;6.602;2024-01-15T02:20:28;4.40;83.50
39975;DHT22;25652;52.852;6.602;2024-01-15T02:23:01;4.30;83.50
39975;DHT22;25652;52.852;6.602;2024-01-15T02:25:26;4.30;83.60
39975;DHT22;25652;52.852;6.602;2024-01-15T02:27:52;4.30;83.70
39975;DHT22;25652;52.852;6.602;2024-01-15T02:30:17;4.20;83.80
39975;DHT22;25652;52.852;6.602;2024-01-15T02:32:43;4.20;83.90
39975;DHT22;25652;52.852;6.602;2024-01-15T02:35:08;4.10;84.00
39975;DHT22;25652;52.852;6.602;2024-01-15T02:37:34;4.10;84.20
39975;DHT22;25652;52.852;6.602;2024-01-15T02:39:59;4.10;84.10
39975;DHT22;25652;52.852;6.602;2024-01-15T02:42:26;4.00;84.10
39975;DHT22;25652;52.852;6.602;2024-01-15T02:44:51;4.00;84.10
39975;DHT22;25652;52.852;6.602;2024-01-15T02:47:17;4.00;84.80
39975;DHT22;25652;52.852;6.602;2024-01-15T02:49:42;4.00;84.40
39975;DHT22;25652;52.852;6.602;2024-01-15T02:52:08;3.90;84.40
39975;DHT22;25652;52.852;6.602;2024-01-15T02:54:34;3.90;84.50
39975;DHT22;25652;52.852;6.602;2024-01-15T02:56:59;4.00;85.50
39975;DHT22;25652;52.852;6.602;2024-01-15T02:59:25;4.70;85.40
39975;DHT22;25652;52.852;6.602;2024-01-15T03:01:50;5.70;83.10
39975;DHT22;25652;52.852;6.602;2024-01-15T03:04:15;6.50;80.80
39975;DHT22;25652;52.852;6.602;2024-01-15T03:06:44;7.30;78.70
39975;DHT22;25652;52.852;6.602;2024-01-15T03:09:09;7.70;76.70
39975;DHT22;25652;52.852;6.602;2024-01-15T03:11:38;7.50;75.30
39975;DHT22;25652;52.852;6.602;2024-01-15T03:14:04;7.20;75.70
39975;DHT22;25652;52.852;6.602;2024-01-15T03:16:30;6.90;76.50
39975;DHT22;25652;52.852;6.602;2024-01-15T03:18:55;6.60;77.20
39975;DHT22;25652;52.852;6.602;2024-01-15T03:21:20;6.40;78.00
39975;DHT22;25652;52.852;6.602;2024-01-15T03:23:46;6.20;78.40
39975;DHT22;25652;52.852;6.602;2024-01-15T03:26:11;6.00;78.90
39975;DHT22;25652;52.852;6.602;2024-01-15T03:28:37;5.90;79.20
39975;DHT22;25652;52.852;6.602;2024-01-15T03:31:02;5.70;79.60
39975;DHT22;25652;52.852;6.602;2024-01-15T03:33:28;5.60;80.20
39975;DHT22;25652;52.852;6.602;2024-01-15T03:35:53;5.50;80.70
39975;DHT22;25652;52.852;6.602;2024-01-15T03:38:19;5.40;81.00
39975;DHT22;25652;52.852;6.602;2024-01-15T03:40:44;5.30;81.20
39975;DHT22;25652;52.852;6.602;2024-01-15T03:43:10;5.20;81.50
39975;DHT22;25652;52.852;6.602;2024-01-15T03:45:35;5.10;81.60
39975;DHT22;25652;52.852;6.602;2024-01-15T03:48:01;5.00;81.90
39975;DHT22;25652;52.852;6.602;2024-01-15T03:50:26;5.00;82.00
39975;DHT22;25652;52.852;6.602;2024-01-15T03:52:52;4.90;82.20
39975;DHT22;25652;52.852;6.602;2024-01-15T03:55:17;4.90;82.30
39975;DHT22;25652;52.852;6.602;2024-01-15T03:57:43;4.80;82.40
39975;DHT22;25652;52.852;6.602;2024-01-15T04:00:11;4.80;82.40
39975;DHT22;25652;52.852;6.602;2024-01-15T04:02:37;4.70;82.50
39975;DHT22;25652;52.852;6.602;2024-01-15T04:05:02;4.70;82.80
39975;DHT22;25652;52.852;6.602;2024-01-15T04:07:28;4.60;83.10
39975;DHT22;25652;52.852;6.602;2024-01-15T04:09:54;4.60;82.80
39975;DHT22;25652;52.852;6.602;2024-01-15T04:12:19;4.60;82.90
39975;DHT22;25652;52.852;6.602;2024-01-15T04:14:44;4.50;83.10
39975;DHT22;25652;52.852;6.602;2024-01-15T04:17:10;4.50;83.20
39975;DHT22;25652;52.852;6.602;2024-01-15T04:19:35;4.40;83.10
39975;DHT22;25652;52.852;6.602;2024-01-15T04:22:01;4.40;83.30
39975;DHT22;25652;52.852;6.602;2024-01-15T04:24:26;4.30;83.50
39975;DHT22;25652;52.852;6.602;2024-01-15T04:26:52;4.30;83.50
39975;DHT22;25652;52.852;6.602;2024-01-15T04:29:17;4.30;83.50
39975;DHT22;25652;52.852;6.602;2024-01-15T04:31:43;4.30;83.70
39975;DHT22;25652;52.852;6.602;2024-01-15T04:34:08;4.20;83.70
39975;DHT22;25652;52.852;6.602;2024-01-15T04:36:39;4.20;83.80
39975;DHT22;25652;52.852;6.602;2024-01-15T04:39:04;4.20;83.90
39975;DHT22;25652;52.852;6.602;2024-01-15T04:41:30;4.10;84.00
39975;DHT22;25652;52.852;6.602;2024-01-15T04:43:55;4.10;84.00
39975;DHT22;25652;52.852;6.602;2024-01-15T04:46:21;4.10;84.20
39975;DHT22;25652;52.852;6.602;2024-01-15T04:48:46;4.10;84.20
39975;DHT22;25652;52.852;6.602;2024-01-15T04:51:12;4.00;84.20
39975;DHT22;25652;52.852;6.602;2024-01-15T04:53:37;4.00;84.30
39975;DHT22;25652;52.852;6.602;2024-01-15T04:56:03;3.90;84.40
39975;DHT22;25652;52.852;6.602;2024-01-15T04:58:29;3.90;84.40
39975;DHT22;25652;52.852;6.602;2024-01-15T05:00:54;4.00;85.20
39975;DHT22;25652;52.852;6.602;2024-01-15T05:03:20;4.70;85.50
39975;DHT22;25652;52.852;6.602;2024-01-15T05:05:45;5.70;83.20
39975;DHT22;25652;52.852;6.602;2024-01-15T05:08:11;6.60;80.80
39975;DHT22;25652;52.852;6.602;2024-01-15T05:10:37;7.40;78.20
39975;DHT22;25652;52.852;6.602;2024-01-15T05:13:02;7.80;76.40
39975;DHT22;25652;52.852;6.602;2024-01-15T05:15:28;7.50;75.10
39975;DHT22;25652;52.852;6.602;2024-01-15T05:17:53;7.20;75.40
39975;DHT22;25652;52.852;6.602;2024-01-15T05:20:19;6.90;76.10
39975;DHT22;25652;52.852;6.602;2024-01-15T05:22:44;6.70;77.10
39975;DHT22;25652;52.852;6.602;2024-01-15T05:25:10;6.40;77.70
39975;DHT22;25652;52.852;6.602;2024-01-15T05:27:35;6.20;78.40
39975;DHT22;25652;52.852;6.602;2024-01-15T05:30:01;6.00;78.90
39975;DHT22;25652;52.852;6.602;2024-01-15T05:32:26;5.80;79.50
39975;DHT22;25652;52.852;6.602;2024-01-15T05:34:51;5.60;80.30
39975;DHT22;25652;52.852;6.602;2024-01-15T05:37:17;5.40;80.70
39975;DHT22;25652;52.852;6.602;2024-01-15T05:39:42;5.30;81.10
39975;DHT22;25652;52.852;6.602;2024-01-15T05:42:08;5.20;81.50
39975;DHT22;25652;52.852;6.602;2024-01-15T05:44:33;5.10;81.70
39975;DHT22;25652;52.852;6.602;2024-01-15T05:46:59;5.00;82.00
39975;DHT22;25652;52.852;6.602;2024-01-15T05:49:24;4.90;82.00
39975;DHT22;25652;52.852;6.602;2024-01-15T05:51:50;4.90;82.20
39975;DHT22;25652;52.852;6.602;2024-01-15T05:54:15;4.80;82.30
39975;DHT22;25652;52.852;6.602;2024-01-15T05:56:41;4.80;82.40
39975;DHT22;25652;52.852;6.602;2024-01-15T05:59:06;4.70;82.50
39975;DHT22;25652;52.852;6.602;2024-01-15T06:01:32;4.70;82.60
39975;DHT22;25652;52.852;6.602;2024-01-15T06:03:57;4.70;82.70
39975;DHT22;25652;52.852;6.602;2024-01-15T06:06:25;4.60;82.80
39975;DHT22;25652;52.852;6.602;2024-01-15T06:08:50;4.60;82.80
39975;DHT22;25652;52.852;6.602;2024-01-15T06:11:16;4.50;83.00
39975;DHT22;25652;52.852;6.602;2024-01-15T06:13:41;4.50;83.10
39975;DHT22;25652;52.852;6.602;2024-01-15T06:16:16;4.40;83.10
39975;DHT22;25652;52.852;6.602;2024-01-15T06:18:41;4.40;83.20
39975;DHT22;25652;52.852;6.602;2024-01-15T06:21:07;4.40;83.30
39975;DHT22;25652;52.852;6.602;2024-01-15T06:23:32;4.30;83.40
39975;DHT22;25652;52.852;6.602;2024-01-15T06:25:58;4.20;83.40
39975;DHT22;25652;52.852;6.602;2024-01-15T06:28:23;4.20;83.50
39975;DHT22;25652;52.852;6.602;2024-01-15T06:30:48;4.40;84.90
39975;DHT22;25652;52.852;6.602;2024-01-15T06:33:14;5.10;84.70
39975;DHT22;25652;52.852;6.602;2024-01-15T06:35:39;6.10;82.10
39975;DHT22;25652;52.852;6.602;2024-01-15T06:38:05;6.90;79.60
39975;DHT22;25652;52.852;6.602;2024-01-15T06:40:30;7.60;77.60
39975;DHT22;25652;52.852;6.602;2024-01-15T06:42:56;8.20;76.00
39975;DHT22;25652;52.852;6.602;2024-01-15T06:45:21;8.80;74.70
39975;DHT22;25652;52.852;6.602;2024-01-15T06:47:49;9.30;73.40
39975;DHT22;25652;52.852;6.602;2024-01-15T06:50:15;9.70;72.50
39975;DHT22;25652;52.852;6.602;2024-01-15T06:52:40;10.10;71.50
39975;DHT22;25652;52.852;6.602;2024-01-15T06:55:06;10.40;70.90
39975;DHT22;25652;52.852;6.602;2024-01-15T06:57:31;10.80;70.00
39975;DHT22;25652;52.852;6.602;2024-01-15T06:59:57;11.10;69.50
39975;DHT22;25652;52.852;6.602;2024-01-15T07:02:22;11.30;68.80
39975;DHT22;25652;52.852;6.602;2024-01-15T07:04:48;11.60;68.30
39975;DHT22;25652;52.852;6.602;2024-01-15T07:07:13;11.90;67.70
39975;DHT22;25652;52.852;6.602;2024-01-15T07:09:39;12.10;67.30
39975;DHT22;25652;52.852;6.602;2024-01-15T07:12:04;12.30;67.00
39975;DHT22;25652;52.852;6.602;2024-01-15T07:14:30;12.50;66.60
39975;DHT22;25652;52.852;6.602;2024-01-15T07:16:55;12.70;66.30
39975;DHT22;25652;52.852;6.602;2024-01-15T07:19:21;12.90;65.70
39975;DHT22;25652;52.852;6.602;2024-01-15T07:21:46;13.10;65.50
39975;DHT22;25652;52.852;6.602;2024-01-15T07:24:19;13.30;65.20
39975;DHT22;25652;52.852;6.602;2024-01-15T07:26:47;12.70;63.50
39975;DHT22;25652;52.852;6.602;2024-01-15T07:29:15;12.20;64.60
39975;DHT22;25652;52.852;6.602;2024-01-15T07:31:40;11.60;65.90
39975;DHT22;25652;52.852;6.602;2024-01-15T07:34:12;11.20;66.80
39975;DHT22;25652;52.852;6.602;2024-01-15T07:36:37;10.80;67.80
39975;DHT22;25652;52.852;6.602;2024-01-15T07:39:03;10.40;68.70
39975;DHT22;25652;52.852;6.602;2024-01-15T07:41:28;10.10;69.40
39975;DHT22;25652;52.852;6.602;2024-01-15T07:43:54;9.70;70.90
39975;DHT22;25652;52.852;6.602;2024-01-15T07:46:19;9.50;71.60
39975;DHT22;25652;52.852;6.602;2024-01-15T07:48:45;9.20;72.80
39975;DHT22;25652;52.852;6.602;2024-01-15T07:51:10;8.90;73.50
39975;DHT22;25652;52.852;6.602;2024-01-15T07:53:36;8.80;73.20
39975;DHT22;25652;52.852;6.602;2024-01-15T07:56:01;8.50;74.50
39975;DHT22;25652;52.852;6.602;2024-01-15T07:58:27;8.40;75.20
39975;DHT22;25652;52.852;6.602;2024-01-15T08:00:52;8.20;75.10
39975;DHT22;25652;52.852;6.602;2024-01-15T08:03:17;8.00;75.50
39975;DHT22;25652;52.852;6.602;2024-01-15T08:05:43;7.90;76.10
39975;DHT22;25652;52.852;6.602;2024-01-15T08:08:08;7.70;76.20
39975;DHT22;25652;52.852;6.602;2024-01-15T08:10:34;7.60;76.20
39975;DHT22;25652;52.852;6.602;2024-01-15T08:12:59;7.50;76.40
39975;DHT22;25652;52.852;6.602;2024-01-15T08:15:25;7.40;76.80
39975;DHT22;25652;52.852;6.602;2024-01-15T08:17:50;7.30;76.90
39975;DHT22;25652;52.852;6.602;2024-01-15T08:20:16;7.20;77.60
39975;DHT22;25652;52.852;6.602;2024-01-15T08:22:41;7.10;77.50
39975;DHT22;25652;52.852;6.602;2024-01-15T08:25:07;7.00;77.50
39975;DHT22;25652;52.852;6.602;2024-01-15T08:27:34;6.80;78.00
39975;DHT22;25652;52.852;6.602;2024-01-15T08:29:59;6.80;78.40
39975;DHT22;25652;52.852;6.602;2024-01-15T08:32:25;6.70;78.00
39975;DHT22;25652;52.852;6.602;2024-01-15T08:34:50;6.60;78.50
39975;DHT22;25652;52.852;6.602;2024-01-15T08:37:15;6.60;78.60
39975;DHT22;25652;52.852;6.602;2024-01-15T08:39:41;6.50;78.70
39975;DHT22;25652;52.852;6.602;2024-01-15T08:42:06;6.40;78.60
39975;DHT22;25652;52.852;6.602;2024-01-15T08:44:32;6.40;78.50
39975;DHT22;25652;52.852;6.602;2024-01-15T08:46:57;6.40;78.60
39975;DHT22;25652;52.852;6.602;2024-01-15T08:49:23;6.30;78.60
39975;DHT22;25652;52.852;6.602;2024-01-15T08:51:48;6.30;78.60
39975;DHT22;25652;52.852;6.602;2024-01-15T08:54:14;6.20;78.70
39975;DHT22;25652;52.852;6.602;2024-01-15T08:56:39;6.20;78.70
39975;DHT22;25652;52.852;6.602;2024-01-15T08:59:05;6.20;78.70
39975;DHT22;25652;52.852;6.602;2024-01-15T09:01:30;6.10;78.80
39975;DHT22;25652;52.852;6.602;2024-01-15T09:03:56;6.10;78.80
39975;DHT22;25652;52.852;6.602;2024-01-15T09:06:21;6.10;79.00
39975;DHT22;25652;52.852;6.602;2024-01-15T09:08:47;6.10;79.00
39975;DHT22;25652;52.852;6.602;2024-01-15T09:11:12;6.10;79.10
39975;DHT22;25652;52.852;6.602;2024-01-15T09:13:38;6.00;79.20
39975;DHT22;25652;52.852;6.602;2024-01-15T09:16:04;6.00;79.40
39975;DHT22;25652;52.852;6.602;2024-01-15T09:18:29;6.00;79.40
39975;DHT22;25652;52.852;6.602;2024-01-15T09:20:55;6.00;79.30
39975;DHT22;25652;52.852;6.602;2024-01-15T09:23:20;5.90;79.40
39975;DHT22;25652;52.852;6.602;2024-01-15T09:25:46;5.90;79.30
39975;DHT22;25652;52.852;6.602;2024-01-15T09:28:11;5.90;79.60
39975;DHT22;25652;52.852;6.602;2024-01-15T09:30:37;5.90;80.10
39975;DHT22;25652;52.852;6.602;2024-01-15T09:33:02;5.90;79.40
39975;DHT22;25652;52.852;6.602;2024-01-15T09:35:28;5.90;79.60
39975;DHT22;25652;52.852;6.602;2024-01-15T09:37:53;5.90;79.40
39975;DHT22;25652;52.852;6.602;2024-01-15T09:40:20;5.90;79.40
39975;DHT22;25652;52.852;6.602;2024-01-15T09:42:46;5.90;79.40
39975;DHT22;25652;52.852;6.602;2024-01-15T09:45:12;5.90;79.50
39975;DHT22;25652;52.852;6.602;2024-01-15T09:47:38;5.90;79.90
39975;DHT22;25652;52.852;6.602;2024-01-15T09:50:06;5.90;79.80
39975;DHT22;25652;52.852;6.602;2024-01-15T09:52:31;6.00;79.70
39975;DHT22;25652;52.852;6.602;2024-01-15T09:54:58;6.00;79.90
39975;DHT22;25652;52.852;6.602;2024-01-15T09:57:25;6.00;80.30
39975;DHT22;25652;52.852;6.602;2024-01-15T09:59:52;6.00;80.40
39975;DHT22;25652;52.852;6.602;2024-01-15T10:02:18;6.10;80.10
39975;DHT22;25652;52.852;6.602;2024-01-15T10:04:44;6.10;80.30
39975;DHT22;25652;52.852;6.602;2024-01-15T10:07:14;6.10;80.60
39975;DHT22;25652;52.852;6.602;2024-01-15T10:09:40;6.10;81.10
39975;DHT22;25652;52.852;6.602;2024-01-15T10:12:06;6.20;80.90
39975;DHT22;25652;52.852;6.602;2024-01-15T10:14:32;6.20;81.20
39975;DHT22;25652;52.852;6.602;2024-01-15T10:16:58;6.20;81.40
39975;DHT22;25652;52.852;6.602;2024-01-15T10:19:23;6.20;81.60
39975;DHT22;25652;52.852;6.602;2024-01-15T10:21:49;6.20;81.50
39975;DHT22;25652;52.852;6.602;2024-01-15T10:24:14;6.20;81.40
39975;DHT22;25652;52.852;6.602;2024-01-15T10:26:40;6.30;81.20
39975;DHT22;25652;52.852;6.602;2024-01-15T10:29:05;6.30;80.90
39975;DHT22;25652;52.852;6.602;2024-01-15T10:31:30;6.40;81.30
39975;DHT22;25652;52.852;6.602;2024-01-15T10:34:12;6.40;81.60
39975;DHT22;25652;52.852;6.602;2024-01-15T10:36:39;6.40;82.20
39975;DHT22;25652;52.852;6.602;2024-01-15T10:39:06;6.40;82.40
39975;DHT22;25652;52.852;6.602;2024-01-15T10:41:31;6.40;81.90
39975;DHT22;25652;52.852;6.602;2024-01-15T10:43:57;6.40;81.90
39975;DHT22;25652;52.852;6.602;2024-01-15T10:46:22;6.40;81.90
39975;DHT22;25652;52.852;6.602;2024-01-15T10:48:48;6.40;82.20
39975;DHT22;25652;52.852;6.602;2024-01-15T10:51:14;6.40;82.20
39975;DHT22;25652;52.852;6.602;2024-01-15T10:53:41;6.40;82.40
39975;DHT22;25652;52.852;6.602;2024-01-15T10:56:07;6.30;82.10
39975;DHT22;25652;52.852;6.602;2024-01-15T10:58:35;6.30;81.90
39975;DHT22;25652;52.852;6.602;2024-01-15T11:01:02;6.30;82.00
39975;DHT22;25652;52.852;6.602;2024-01-15T11:03:29;6.30;82.20
39975;DHT22;25652;52.852;6.602;2024-01-15T11:05:54;6.20;81.40
39975;DHT22;25652;52.852;6.602;2024-01-15T11:08:20;6.20;81.60
39975;DHT22;25652;52.852;6.602;2024-01-15T11:10:47;6.20;81.20
39975;DHT22;25652;52.852;6.602;2024-01-15T11:13:22;6.20;81.20
39975;DHT22;25652;52.852;6.602;2024-01-15T11:16:07;6.20;81.90
39975;DHT22;25652;52.852;6.602;2024-01-15T11:18:39;6.20;81.40
39975;DHT22;25652;52.852;6.602;2024-01-15T11:23:50;6.20;81.70
39975;DHT22;25652;52.852;6.602;2024-01-15T11:26:36;6.10;81.30
39975;DHT22;25652;52.852;6.602;2024-01-15T11:29:07;6.20;81.40
39975;DHT22;25652;52.852;6.602;2024-01-15T11:34:05;6.10;81.30
39975;DHT22;25652;52.852;6.602;2024-01-15T11:42:00;6.00;81.00
39975;DHT22;25652;52.852;6.602;2024-01-15T11:44:26;6.00;80.60
39975;DHT22;25652;52.852;6.602;2024-01-15T11:47:06;6.00;81.50
39975;DHT22;25652;52.852;6.602;2024-01-15T11:50:00;6.00;81.40
39975;DHT22;25652;52.852;6.602;2024-01-15T11:52:26;6.00;81.40
39975;DHT22;25652;52.852;6.602;2024-01-15T11:59:56;5.80;81.60
39975;DHT22;25652;52.852;6.602;2024-01-15T12:02:22;5.80;81.70
39975;DHT22;25652;52.852;6.602;2024-01-15T12:04:48;5.80;81.30
39975;DHT22;25652;52.852;6.602;2024-01-15T12:07:17;5.70;81.90
39975;DHT22;25652;52.852;6.602;2024-01-15T12:09:45;5.70;81.20
39975;DHT22;25652;52.852;6.602;2024-01-15T12:12:18;5.70;81.90
39975;DHT22;25652;52.852;6.602;2024-01-15T12:14:47;5.60;81.30
39975;DHT22;25652;52.852;6.602;2024-01-15T12:17:13;5.60;81.90
39975;DHT22;25652;52.852;6.602;2024-01-15T12:19:38;5.60;81.60
39975;DHT22;25652;52.852;6.602;2024-01-15T12:22:04;5.50;81.50
39975;DHT22;25652;52.852;6.602;2024-01-15T12:24:29;5.50;81.80
39975;DHT22;25652;52.852;6.602;2024-01-15T12:26:55;5.40;81.90
39975;DHT22;25652;52.852;6.602;2024-01-15T12:29:20;5.30;82.20
39975;DHT22;25652;52.852;6.602;2024-01-15T12:31:49;5.30;82.10
39975;DHT22;25652;52.852;6.602;2024-01-15T12:34:14;5.30;82.30
39975;DHT22;25652;52.852;6.602;2024-01-15T12:36:40;5.20;82.30
39975;DHT22;25652;52.852;6.602;2024-01-15T12:39:06;5.20;82.10
39975;DHT22;25652;52.852;6.602;2024-01-15T12:41:36;5.20;82.50
39975;DHT22;25652;52.852;6.602;2024-01-15T12:44:04;5.20;82.20
39975;DHT22;25652;52.852;6.602;2024-01-15T12:46:30;5.20;82.30
39975;DHT22;25652;52.852;6.602;2024-01-15T12:48:56;5.10;82.30
39975;DHT22;25652;52.852;6.602;2024-01-15T12:51:25;5.10;82.40
39975;DHT22;25652;52.852;6.602;2024-01-15T12:53:50;5.10;82.30
39975;DHT22;25652;52.852;6.602;2024-01-15T12:56:16;5.00;82.10
39975;DHT22;25652;52.852;6.602;2024-01-15T12:58:41;5.00;82.10
39975;DHT22;25652;52.852;6.602;2024-01-15T13:01:07;5.00;82.30
39975;DHT22;25652;52.852;6.602;2024-01-15T13:03:32;5.00;82.30
39975;DHT22;25652;52.852;6.602;2024-01-15T13:05:58;4.90;82.30
39975;DHT22;25652;52.852;6.602;2024-01-15T13:08:23;4.90;82.30
39975;DHT22;25652;52.852;6.602;2024-01-15T13:10:49;4.90;82.30
39975;DHT22;25652;52.852;6.602;2024-01-15T13:13:14;4.90;82.10
39975;DHT22;25652;52.852;6.602;2024-01-15T13:15:39;4.90;82.40
39975;DHT22;25652;52.852;6.602;2024-01-15T13:18:05;4.80;82.60
39975;DHT22;25652;52.852;6.602;2024-01-15T13:20:31;4.80;82.60
39975;DHT22;25652;52.852;6.602;2024-01-15T13:22:56;4.80;82.80
39975;DHT22;25652;52.852;6.602;2024-01-15T13:25:22;4.80;82.80
39975;DHT22;25652;52.852;6.602;2024-01-15T13:27:47;4.70;82.60
39975;DHT22;25652;52.852;6.602;2024-01-15T13:30:13;4.70;82.70
39975;DHT22;25652;52.852;6.602;2024-01-15T13:32:38;4.70;82.70
39975;DHT22;25652;52.852;6.602;2024-01-15T13:35:04;4.70;82.60
39975;DHT22;25652;52.852;6.602;2024-01-15T13:37:30;4.60;82.60
39975;DHT22;25652;52.852;6.602;2024-01-15T13:39:55;4.60;82.60
39975;DHT22;25652;52.852;6.602;2024-01-15T13:42:21;4.60;82.90
39975;DHT22;25652;52.852;6.602;2024-01-15T13:44:46;4.60;82.80
39975;DHT22;25652;52.852;6.602;2024-01-15T13:47:12;4.60;82.80
39975;DHT22;25652;52.852;6.602;2024-01-15T13:49:37;4.60;83.00
39975;DHT22;25652;52.852;6.602;2024-01-15T13:52:03;4.50;82.90
39975;DHT22;25652;52.852;6.602;2024-01-15T13:54:29;4.50;83.10
39975;DHT22;25652;52.852;6.602;2024-01-15T13:56:54;4.50;83.20
39975;DHT22;25652;52.852;6.602;2024-01-15T13:59:20;4.40;83.00
39975;DHT22;25652;52.852;6.602;2024-01-15T14:01:45;4.40;83.10
39975;DHT22;25652;52.852;6.602;2024-01-15T14:04:11;4.40;83.20
39975;DHT22;25652;52.852;6.602;2024-01-15T14:06:36;4.40;83.20
39975;DHT22;25652;52.852;6.602;2024-01-15T14:09:02;4.40;83.30
39975;DHT22;25652;52.852;6.602;2024-01-15T14:11:27;4.40;83.30
39975;DHT22;25652;52.852;6.602;2024-01-15T14:13:53;4.30;83.30
39975;DHT22;25652;52.852;6.602;2024-01-15T14:16:18;4.40;83.30
39975;DHT22;25652;52.852;6.602;2024-01-15T14:18:43;4.30;83.30
39975;DHT22;25652;52.852;6.602;2024-01-15T14:21:09;4.30;83.40
39975;DHT22;25652;52.852;6.602;2024-01-15T14:23:34;4.30;83.30
39975;DHT22;25652;52.852;6.602;2024-01-15T14:26:00;4.30;83.50
39975;DHT22;25652;52.852;6.602;2024-01-15T14:28:25;4.20;83.40
39975;DHT22;25652;52.852;6.602;2024-01-15T14:30:51;4.30;83.60
39975;DHT22;25652;52.852;6.602;2024-01-15T14:33:16;4.20;83.60
39975;DHT22;25652;52.852;6.602;2024-01-15T14:35:42;4.10;84.30
39975;DHT22;25652;52.852;6.602;2024-01-15T14:38:07;4.20;83.70
39975;DHT22;25652;52.852;6.602;2024-01-15T14:40:34;4.10;83.70
39975;DHT22;25652;52.852;6.602;2024-01-15T14:42:59;4.20;83.80
39975;DHT22;25652;52.852;6.602;2024-01-15T14:45:25;4.20;83.70
39975;DHT22;25652;52.852;6.602;2024-01-15T14:47:50;4.10;83.70
39975;DHT22;25652;52.852;6.602;2024-01-15T14:50:16;4.10;83.70
39975;DHT22;25652;52.852;6.602;2024-01-15T14:52:41;4.10;83.70
39975;DHT22;25652;52.852;6.602;2024-01-15T14:55:07;4.10;83.70
39975;DHT22;25652;52.852;6.602;2024-01-15T14:57:33;4.10;83.80
39975;DHT22;25652;52.852;6.602;2024-01-15T14:59:58;4.10;83.80
39975;DHT22;25652;52.852;6.602;2024-01-15T15:02:24;4.00;83.90
39975;DHT22;25652;52.852;6.602;2024-01-15T15:04:50;4.00;83.90
39975;DHT22;25652;52.852;6.602;2024-01-15T15:07:15;4.00;83.90
39975;DHT22;25652;52.852;6.602;2024-01-15T15:09:40;4.00;84.00
39975;DHT22;25652;52.852;6.602;2024-01-15T15:12:06;4.00;84.00
39975;DHT22;25652;52.852;6.602;2024-01-15T15:14:32;3.90;83.90
39975;DHT22;25652;52.852;6.602;2024-01-15T15:16:58;3.90;84.10
39975;DHT22;25652;52.852;6.602;2024-01-15T15:19:23;4.10;85.50
39975;DHT22;25652;52.852;6.602;2024-01-15T15:21:49;4.90;85.10
39975;DHT22;25652;52.852;6.602;2024-01-15T15:24:14;5.20;82.60
39975;DHT22;25652;52.852;6.602;2024-01-15T15:26:40;5.20;81.70
39975;DHT22;25652;52.852;6.602;2024-01-15T15:29:05;5.10;81.40
39975;DHT22;25652;52.852;6.602;2024-01-15T15:31:31;5.00;81.40
39975;DHT22;25652;52.852;6.602;2024-01-15T15:33:56;4.90;81.70
39975;DHT22;25652;52.852;6.602;2024-01-15T15:36:22;4.80;82.00
39975;DHT22;25652;52.852;6.602;2024-01-15T15:38:47;4.70;82.40
39975;DHT22;25652;52.852;6.602;2024-01-15T15:41:13;4.60;82.70
39975;DHT22;25652;52.852;6.602;2024-01-15T15:43:38;4.50;83.00
39975;DHT22;25652;52.852;6.602;2024-01-15T15:46:03;4.70;84.50
39975;DHT22;25652;52.852;6.602;2024-01-15T15:48:30;5.60;83.40
39975;DHT22;25652;52.852;6.602;2024-01-15T15:50:56;6.00;80.50
39975;DHT22;25652;52.852;6.602;2024-01-15T15:53:21;6.00;79.80